Terminal Aerodrome Forecast
Issued by NWS

Home | Current Version | Previous Version | Text Only | Print | Product List | Glossary On
Versions: 1 2 3 4 5 6 7 8 9 10 11 12 13 14 15
000
FTAK31 PAJN 211700
TAFASI
TAF
PASI 211729Z 2118/2218 11011G18KT P6SM -RA SCT020 OVC040
      WS020/11030KT
     FM211900 14013G25KT 6SM -RA BR OVC035 WS020/11035KT
     FM212100 14020G38KT 6SM -RA BR SCT012 OVC025 WS020/13040KT
     FM220600 14022G39KT 6SM -RA BR SCT012 OVC030 WS020/14045KT=

USA.gov is the U.S. government's official web portal to all federal, state and local government web resources and services.